AirNav   ATP
 
 303 users online  

N21 Holly Ridge/Topsail Island Airport
Holly Ridge, North Carolina, USA

GOING TO HOLLY RIDGE?


FAA INFORMATION EFFECTIVE 09 NOVEMBER 2017

Location

FAA Identifier: N21
Lat/Long: 34-29-27.6010N / 077-31-51.8860W
34-29.460017N / 077-31.864767W
34.4910003 / -77.5310794
(estimated)
Elevation: 40 ft. / 12 m (estimated)
Variation: 08W (1985)
From city: 1 mile SE of HOLLY RIDGE, NC
Time zone: UTC -5 (UTC -4 during Daylight Saving Time)
Zip code: 28445

Airport Operations

Airport use: Open to the public
Activation date: 04/1980
Control tower: no
ARTCC: WASHINGTON CENTER
FSS: RALEIGH FLIGHT SERVICE STATION
NOTAMs facility: RDU (NOTAM-D service available)
Attendance: IREG
Wind indicator: yes
Segmented circle: no
Lights: SS-SR

Airport Communications

CTAF: 122.9
WX ASOS at NCA (14 nm N): 288.325 or 244.775

Nearby radio navigation aids

VOR radial/distance  VOR name  Freq  Var
ILMr071/18.9WILMINGTON VORTAC117.0007W

 
NDB name  Hdg/Dist  Freq  Var  ID
DIXON228/6.019808WDIW -.. .. .--
CAROLINA BEACH052/31.421609WCLB -.-. .-.. -...
KENAN160/39.833209WDKA -.. -.- .-

Airport Services

Parking: tiedowns

Runway Information

Runway 14/32

Dimensions: 3600 x 88 ft. / 1097 x 27 m
Surface: turf, in good condition
Runway edge lights: non-standard
LGTD THLD RY 14 RELCTD 925 FT; RY 32 LGTD THLD RELCTD 600 FT; 2000 FT OF RY 14/32 USBL FOR NGT OPNS.
RUNWAY 14  RUNWAY 32
Traffic pattern: leftleft
Displaced threshold: 925 ft.600 ft.
Obstructions: 60 ft. pline, 50 ft. from runway
APCH RATIO 19:1 TO DSPLCD THLD FOR PWR LN;
35 ft. pline, marked, 67 ft. from runway, 1:1 slope to clear
APCH SLOPE 19:1 TO DSPLCD THLD DUE TO PWR LN; RY 32 HAS A ROAD 145 FT FM END OF RY.

Airport Ownership and Management from official FAA records

Ownership: Privately-owned
Owner: GROVER D ELLIS & ELIZABETH WHITLEY
690 HOLLY RIDGE ROAD
HOLLY RIDGE, NC 28445
Phone 910-329-0041
Manager: DAVID ELLIS
690 HOLLY RIDGE ROAD
HOLLY RIDGE, NC 28445
Phone 910-329-0041

Airport Operational Statistics

Aircraft based on the field: 3
Single engine airplanes: 2
Helicopters: 1
    
Aircraft operations: avg 88/week *
54% transient general aviation
43% local general aviation
2% military
* for 12-month period ending 18 May 2016

Additional Remarks

A51 DSPLCD THRDS INDICATED BY END OF RY LGTS AND YELLOW CONES.
DEER ON AND INVOF ARPT.
EMS AIR AMBULANCE OPERATIONS 24/7.

Instrument Procedures

There are no published instrument procedures at N21.

Some nearby airports with instrument procedures:

KNCA - New River Marine Corps Air Station (H) (McCutcheon Field) (14 nm N)
KOAJ - Albert J Ellis Airport (21 nm N)
KILM - Wilmington International Airport (23 nm SW)
KACZ - Henderson Field Airport (27 nm NW)
KNJM - Bogue Field Marine Corps Auxiliary Field (28 nm NE)
 
Loc | Ops | Rwys | IFR | FBO | Links
Com | Nav | Svcs | Stats | Notes


 
Area around N21 (Holly Ridge/Topsail Island Airport)
 
Road maps at: MapQuest Bing Google
 
Aerial photo
WARNING: Photo may not be current or correct
Aerial photo of N21 (Holly Ridge/Topsail Island Airport)
Photo by Joe Freeman
Photo taken 08-Dec-2011
looking northwest.

Do you have a better or more recent aerial photo of Holly Ridge/Topsail Island Airport that you would like to share? If so, please send us your photo.

 
Sectional chart

 
Airport distance calculator
Flying to Holly Ridge/Topsail Island Airport? Find the distance to fly.

From to N21

Sunrise and sunset
Times for 25-Nov-2017
 Local
(UTC-5)
 Zulu
(UTC)
Morning civil twilight06:2711:27
Sunrise06:5411:54
Sunset17:0022:00
Evening civil twilight17:2722:27

Current date and time
Zulu (UTC)  25-Nov-2017 10:59:34
Local (UTC-5)  25-Nov-2017 05:59:34
 
METAR
KNCA 
14nm N 
250956Z AUTO 30004KT 10SM FEW027 06/05 A2992 RMK AO2 SLP136 T00610050
KOAJ 
20nm N 
250956Z AUTO 00000KT 10SM CLR 04/03 A2993 RMK AO2 SLP142 T00440033
KILM 
23nm SW 
251053Z AUTO 00000KT 10SM CLR 06/04 A2994 RMK AO2 SLP137 T00560039
KNJM 
28nm NE 
250957Z AUTO 34006KT 10SM 08/06 A2991 RMK AO2 SLP132 T00780061 $
TAF
KOAJ 
20nm N 
250540Z 2506/2606 00000KT P6SM SCT025 BKN035 FM250800 00000KT P6SM FEW025 SCT035 FM251200 VRB03KT P6SM SKC FM251700 26006KT P6SM SKC FM260200 25005KT P6SM BKN110 AMD LTD TO CLD VIS AND WIND
NOTAMs
Click for the latest NOTAMs
NOTAMs are issued by the DoD/FAA and will open in a separate window not controlled by AirNav.

 

 
 

Would you like to see your business listed on this page?

 If your business provides an interesting product or service to pilots, flight crews, aircraft, or users of the Holly Ridge/Topsail Island Airport, you should consider listing it here.  To start the listing process, click on the button below
 
Add a business
 

Other Pages about Holly Ridge/Topsail Island Airport

Update a link
 
Copyright © AirNav, LLC. All rights reserved. Privacy Policy  Contact